sensor_id;sensor_type;location;lat;lon;timestamp;P1;durP1;ratioP1;P2;durP2;ratioP2
79348;SDS011;68817;48.110;11.660;2023-04-25T00:00:54;2.47;;;1.17;;
79348;SDS011;68817;48.110;11.660;2023-04-25T00:03:20;3.33;;;1.30;;
79348;SDS011;68817;48.110;11.660;2023-04-25T00:05:46;2.20;;;1.25;;
79348;SDS011;68817;48.110;11.660;2023-04-25T00:08:11;2.53;;;1.50;;
79348;SDS011;68817;48.110;11.660;2023-04-25T00:10:36;2.95;;;1.38;;
79348;SDS011;68817;48.110;11.660;2023-04-25T00:13:02;1.73;;;1.15;;
79348;SDS011;68817;48.110;11.660;2023-04-25T00:15:27;2.95;;;1.30;;
79348;SDS011;68817;48.110;11.660;2023-04-25T00:17:55;2.35;;;1.40;;
79348;SDS011;68817;48.110;11.660;2023-04-25T00:20:21;1.90;;;1.33;;
79348;SDS011;68817;48.110;11.660;2023-04-25T00:22:48;2.88;;;1.80;;
79348;SDS011;68817;48.110;11.660;2023-04-25T00:25:14;1.98;;;1.60;;
79348;SDS011;68817;48.110;11.660;2023-04-25T00:27:39;2.30;;;1.45;;
79348;SDS011;68817;48.110;11.660;2023-04-25T00:30:06;2.90;;;1.55;;
79348;SDS011;68817;48.110;11.660;2023-04-25T00:32:32;2.53;;;1.60;;
79348;SDS011;68817;48.110;11.660;2023-04-25T00:34:58;2.28;;;1.35;;
79348;SDS011;68817;48.110;11.660;2023-04-25T00:37:23;2.55;;;1.50;;
79348;SDS011;68817;48.110;11.660;2023-04-25T00:39:49;2.55;;;1.25;;
79348;SDS011;68817;48.110;11.660;2023-04-25T00:42:14;2.15;;;1.30;;
79348;SDS011;68817;48.110;11.660;2023-04-25T00:44:40;2.17;;;1.30;;
79348;SDS011;68817;48.110;11.660;2023-04-25T00:47:06;2.78;;;1.70;;
79348;SDS011;68817;48.110;11.660;2023-04-25T00:49:31;1.85;;;1.30;;
79348;SDS011;68817;48.110;11.660;2023-04-25T00:51:57;1.70;;;1.23;;
79348;SDS011;68817;48.110;11.660;2023-04-25T00:54:22;2.22;;;1.35;;
79348;SDS011;68817;48.110;11.660;2023-04-25T00:56:48;2.58;;;1.50;;
79348;SDS011;68817;48.110;11.660;2023-04-25T00:59:14;1.90;;;1.27;;
79348;SDS011;68817;48.110;11.660;2023-04-25T01:01:40;2.22;;;1.70;;
79348;SDS011;68817;48.110;11.660;2023-04-25T01:04:06;2.72;;;1.40;;
79348;SDS011;68817;48.110;11.660;2023-04-25T01:06:32;3.60;;;1.25;;
79348;SDS011;68817;48.110;11.660;2023-04-25T01:08:57;1.52;;;1.10;;
79348;SDS011;68817;48.110;11.660;2023-04-25T01:11:24;3.60;;;1.35;;
79348;SDS011;68817;48.110;11.660;2023-04-25T01:13:49;3.28;;;1.20;;
79348;SDS011;68817;48.110;11.660;2023-04-25T01:16:15;1.38;;;1.27;;
79348;SDS011;68817;48.110;11.660;2023-04-25T01:18:40;2.65;;;1.40;;
79348;SDS011;68817;48.110;11.660;2023-04-25T01:21:10;2.40;;;1.42;;
79348;SDS011;68817;48.110;11.660;2023-04-25T01:23:37;1.98;;;1.48;;
79348;SDS011;68817;48.110;11.660;2023-04-25T01:26:04;2.70;;;1.50;;
79348;SDS011;68817;48.110;11.660;2023-04-25T01:28:30;1.80;;;1.20;;
79348;SDS011;68817;48.110;11.660;2023-04-25T01:30:56;2.30;;;1.33;;
79348;SDS011;68817;48.110;11.660;2023-04-25T01:33:22;1.77;;;1.20;;
79348;SDS011;68817;48.110;11.660;2023-04-25T01:35:47;2.00;;;1.40;;
79348;SDS011;68817;48.110;11.660;2023-04-25T01:38:13;2.40;;;1.35;;
79348;SDS011;68817;48.110;11.660;2023-04-25T01:40:40;2.72;;;1.48;;
79348;SDS011;68817;48.110;11.660;2023-04-25T01:43:06;2.15;;;1.30;;
79348;SDS011;68817;48.110;11.660;2023-04-25T01:45:33;2.40;;;1.77;;
79348;SDS011;68817;48.110;11.660;2023-04-25T01:48:01;2.75;;;1.48;;
79348;SDS011;68817;48.110;11.660;2023-04-25T01:50:27;2.40;;;1.50;;
79348;SDS011;68817;48.110;11.660;2023-04-25T01:52:54;2.20;;;1.30;;
79348;SDS011;68817;48.110;11.660;2023-04-25T01:55:20;2.42;;;1.40;;
79348;SDS011;68817;48.110;11.660;2023-04-25T01:57:56;2.85;;;1.58;;
79348;SDS011;68817;48.110;11.660;2023-04-25T02:00:34;2.20;;;1.50;;
79348;SDS011;68817;48.110;11.660;2023-04-25T02:02:59;2.00;;;1.38;;
79348;SDS011;68817;48.110;11.660;2023-04-25T02:05:33;2.03;;;1.80;;
79348;SDS011;68817;48.110;11.660;2023-04-25T02:07:59;2.67;;;1.27;;
79348;SDS011;68817;48.110;11.660;2023-04-25T02:10:26;2.28;;;1.65;;
79348;SDS011;68817;48.110;11.660;2023-04-25T02:13:05;2.83;;;1.70;;
79348;SDS011;68817;48.110;11.660;2023-04-25T02:15:47;2.83;;;1.67;;
79348;SDS011;68817;48.110;11.660;2023-04-25T02:18:14;2.85;;;1.63;;
79348;SDS011;68817;48.110;11.660;2023-04-25T02:20:42;2.20;;;1.65;;
79348;SDS011;68817;48.110;11.660;2023-04-25T02:23:08;5.00;;;1.40;;
79348;SDS011;68817;48.110;11.660;2023-04-25T02:25:33;2.05;;;1.42;;
79348;SDS011;68817;48.110;11.660;2023-04-25T02:27:59;2.45;;;1.50;;
79348;SDS011;68817;48.110;11.660;2023-04-25T02:30:24;1.90;;;1.42;;
79348;SDS011;68817;48.110;11.660;2023-04-25T02:32:50;2.50;;;1.75;;
79348;SDS011;68817;48.110;11.660;2023-04-25T02:35:15;2.25;;;1.40;;
79348;SDS011;68817;48.110;11.660;2023-04-25T02:37:41;3.33;;;1.50;;
79348;SDS011;68817;48.110;11.660;2023-04-25T02:40:07;2.38;;;1.63;;
79348;SDS011;68817;48.110;11.660;2023-04-25T02:42:33;2.63;;;1.88;;
79348;SDS011;68817;48.110;11.660;2023-04-25T02:44:58;2.15;;;1.30;;
79348;SDS011;68817;48.110;11.660;2023-04-25T02:47:25;3.58;;;1.40;;
79348;SDS011;68817;48.110;11.660;2023-04-25T02:49:51;2.33;;;1.40;;
79348;SDS011;68817;48.110;11.660;2023-04-25T02:52:16;3.40;;;1.42;;
79348;SDS011;68817;48.110;11.660;2023-04-25T02:54:43;2.33;;;1.55;;
79348;SDS011;68817;48.110;11.660;2023-04-25T02:57:09;2.35;;;1.83;;
79348;SDS011;68817;48.110;11.660;2023-04-25T02:59:36;3.70;;;1.80;;
79348;SDS011;68817;48.110;11.660;2023-04-25T03:02:01;2.03;;;1.35;;
79348;SDS011;68817;48.110;11.660;2023-04-25T03:04:27;2.45;;;1.45;;
79348;SDS011;68817;48.110;11.660;2023-04-25T03:06:53;2.25;;;1.48;;
79348;SDS011;68817;48.110;11.660;2023-04-25T03:09:20;3.38;;;1.23;;
79348;SDS011;68817;48.110;11.660;2023-04-25T03:11:48;2.67;;;1.90;;
79348;SDS011;68817;48.110;11.660;2023-04-25T03:14:13;4.00;;;1.42;;
79348;SDS011;68817;48.110;11.660;2023-04-25T03:16:39;2.15;;;1.25;;
79348;SDS011;68817;48.110;11.660;2023-04-25T03:19:04;3.17;;;1.65;;
79348;SDS011;68817;48.110;11.660;2023-04-25T03:21:31;2.40;;;1.30;;
79348;SDS011;68817;48.110;11.660;2023-04-25T03:23:58;3.95;;;1.60;;
79348;SDS011;68817;48.110;11.660;2023-04-25T03:26:23;3.22;;;1.80;;
79348;SDS011;68817;48.110;11.660;2023-04-25T03:28:49;4.72;;;1.90;;
79348;SDS011;68817;48.110;11.660;2023-04-25T03:31:14;2.20;;;1.50;;
79348;SDS011;68817;48.110;11.660;2023-04-25T03:33:40;2.70;;;1.63;;
79348;SDS011;68817;48.110;11.660;2023-04-25T03:36:05;3.60;;;1.70;;
79348;SDS011;68817;48.110;11.660;2023-04-25T03:38:31;2.00;;;1.30;;
79348;SDS011;68817;48.110;11.660;2023-04-25T03:40:57;2.28;;;1.35;;
79348;SDS011;68817;48.110;11.660;2023-04-25T03:43:35;2.67;;;1.35;;
79348;SDS011;68817;48.110;11.660;2023-04-25T03:46:05;2.92;;;1.50;;
79348;SDS011;68817;48.110;11.660;2023-04-25T03:48:31;2.03;;;1.45;;
79348;SDS011;68817;48.110;11.660;2023-04-25T03:50:57;2.25;;;1.05;;
79348;SDS011;68817;48.110;11.660;2023-04-25T03:53:24;3.85;;;1.60;;
79348;SDS011;68817;48.110;11.660;2023-04-25T03:56:09;2.25;;;1.33;;
79348;SDS011;68817;48.110;11.660;2023-04-25T03:58:37;2.97;;;1.67;;
79348;SDS011;68817;48.110;11.660;2023-04-25T04:01:02;2.47;;;1.42;;
79348;SDS011;68817;48.110;11.660;2023-04-25T04:03:32;3.65;;;1.73;;
79348;SDS011;68817;48.110;11.660;2023-04-25T04:05:59;3.78;;;1.77;;
79348;SDS011;68817;48.110;11.660;2023-04-25T04:08:24;3.25;;;1.50;;
79348;SDS011;68817;48.110;11.660;2023-04-25T04:10:51;3.28;;;1.63;;
79348;SDS011;68817;48.110;11.660;2023-04-25T04:13:16;3.40;;;1.75;;
79348;SDS011;68817;48.110;11.660;2023-04-25T04:15:43;4.38;;;1.90;;
79348;SDS011;68817;48.110;11.660;2023-04-25T04:18:08;2.75;;;1.48;;
79348;SDS011;68817;48.110;11.660;2023-04-25T04:20:34;4.65;;;2.03;;
79348;SDS011;68817;48.110;11.660;2023-04-25T04:22:59;3.28;;;1.83;;
79348;SDS011;68817;48.110;11.660;2023-04-25T04:25:26;2.15;;;1.23;;
79348;SDS011;68817;48.110;11.660;2023-04-25T04:28:16;1.90;;;1.20;;
79348;SDS011;68817;48.110;11.660;2023-04-25T04:30:53;1.80;;;1.02;;
79348;SDS011;68817;48.110;11.660;2023-04-25T04:33:20;2.85;;;1.20;;
79348;SDS011;68817;48.110;11.660;2023-04-25T04:35:51;2.38;;;1.27;;
79348;SDS011;68817;48.110;11.660;2023-04-25T04:38:17;3.58;;;1.30;;
79348;SDS011;68817;48.110;11.660;2023-04-25T04:40:44;3.25;;;1.65;;
79348;SDS011;68817;48.110;11.660;2023-04-25T04:43:18;3.88;;;1.15;;
79348;SDS011;68817;48.110;11.660;2023-04-25T04:48:28;2.13;;;1.45;;
79348;SDS011;68817;48.110;11.660;2023-04-25T04:51:09;4.65;;;1.75;;
79348;SDS011;68817;48.110;11.660;2023-04-25T04:54:06;2.92;;;1.45;;
79348;SDS011;68817;48.110;11.660;2023-04-25T04:56:44;2.25;;;1.17;;
79348;SDS011;68817;48.110;11.660;2023-04-25T04:59:35;3.58;;;1.35;;
79348;SDS011;68817;48.110;11.660;2023-04-25T05:02:08;3.15;;;1.25;;
79348;SDS011;68817;48.110;11.660;2023-04-25T05:04:42;1.83;;;1.30;;
79348;SDS011;68817;48.110;11.660;2023-04-25T05:07:23;2.45;;;1.38;;
79348;SDS011;68817;48.110;11.660;2023-04-25T05:10:06;1.90;;;1.27;;
79348;SDS011;68817;48.110;11.660;2023-04-25T05:13:01;1.55;;;1.30;;
79348;SDS011;68817;48.110;11.660;2023-04-25T05:15:46;1.55;;;1.30;;
79348;SDS011;68817;48.110;11.660;2023-04-25T05:18:25;1.92;;;1.55;;
79348;SDS011;68817;48.110;11.660;2023-04-25T05:21:01;2.53;;;1.48;;
79348;SDS011;68817;48.110;11.660;2023-04-25T05:23:45;3.15;;;1.52;;
79348;SDS011;68817;48.110;11.660;2023-04-25T05:26:23;3.40;;;1.60;;
79348;SDS011;68817;48.110;11.660;2023-04-25T05:28:59;4.22;;;1.50;;
79348;SDS011;68817;48.110;11.660;2023-04-25T05:32:00;1.80;;;1.33;;
79348;SDS011;68817;48.110;11.660;2023-04-25T05:34:26;3.25;;;1.73;;
79348;SDS011;68817;48.110;11.660;2023-04-25T05:36:55;2.78;;;1.73;;
79348;SDS011;68817;48.110;11.660;2023-04-25T05:39:20;2.03;;;1.40;;
79348;SDS011;68817;48.110;11.660;2023-04-25T05:42:02;3.15;;;1.83;;
79348;SDS011;68817;48.110;11.660;2023-04-25T05:44:47;3.10;;;1.67;;
79348;SDS011;68817;48.110;11.660;2023-04-25T05:47:31;2.30;;;1.42;;
79348;SDS011;68817;48.110;11.660;2023-04-25T05:50:03;3.78;;;1.38;;
79348;SDS011;68817;48.110;11.660;2023-04-25T05:52:50;2.05;;;1.58;;
79348;SDS011;68817;48.110;11.660;2023-04-25T05:55:37;3.47;;;1.42;;
79348;SDS011;68817;48.110;11.660;2023-04-25T05:58:18;1.63;;;1.30;;
79348;SDS011;68817;48.110;11.660;2023-04-25T06:00:43;3.20;;;1.25;;
79348;SDS011;68817;48.110;11.660;2023-04-25T06:03:09;2.33;;;1.40;;
79348;SDS011;68817;48.110;11.660;2023-04-25T06:05:35;2.92;;;1.40;;
79348;SDS011;68817;48.110;11.660;2023-04-25T06:08:01;4.00;;;1.67;;
79348;SDS011;68817;48.110;11.660;2023-04-25T06:10:26;2.30;;;1.48;;
79348;SDS011;68817;48.110;11.660;2023-04-25T06:12:52;4.28;;;1.75;;
79348;SDS011;68817;48.110;11.660;2023-04-25T06:15:19;2.22;;;1.50;;
79348;SDS011;68817;48.110;11.660;2023-04-25T06:17:45;3.05;;;1.38;;
79348;SDS011;68817;48.110;11.660;2023-04-25T06:20:11;3.15;;;1.52;;
79348;SDS011;68817;48.110;11.660;2023-04-25T06:22:36;4.35;;;1.38;;
79348;SDS011;68817;48.110;11.660;2023-04-25T06:25:05;4.72;;;1.30;;
79348;SDS011;68817;48.110;11.660;2023-04-25T06:27:32;2.55;;;1.30;;
79348;SDS011;68817;48.110;11.660;2023-04-25T06:30:04;3.47;;;1.50;;
79348;SDS011;68817;48.110;11.660;2023-04-25T06:32:31;2.83;;;1.60;;
79348;SDS011;68817;48.110;11.660;2023-04-25T06:34:59;2.53;;;1.40;;
79348;SDS011;68817;48.110;11.660;2023-04-25T06:37:24;1.83;;;1.30;;
79348;SDS011;68817;48.110;11.660;2023-04-25T06:39:50;3.67;;;1.63;;
79348;SDS011;68817;48.110;11.660;2023-04-25T06:42:16;3.58;;;1.80;;
79348;SDS011;68817;48.110;11.660;2023-04-25T06:44:50;2.50;;;1.67;;
79348;SDS011;68817;48.110;11.660;2023-04-25T06:47:17;2.50;;;1.80;;
79348;SDS011;68817;48.110;11.660;2023-04-25T06:49:42;2.35;;;1.80;;
79348;SDS011;68817;48.110;11.660;2023-04-25T06:52:08;2.30;;;1.50;;
79348;SDS011;68817;48.110;11.660;2023-04-25T06:54:35;2.58;;;1.77;;
79348;SDS011;68817;48.110;11.660;2023-04-25T06:57:13;2.78;;;1.88;;
79348;SDS011;68817;48.110;11.660;2023-04-25T06:59:38;4.13;;;1.70;;
79348;SDS011;68817;48.110;11.660;2023-04-25T07:02:04;2.83;;;1.90;;
79348;SDS011;68817;48.110;11.660;2023-04-25T07:04:31;3.58;;;1.98;;
79348;SDS011;68817;48.110;11.660;2023-04-25T07:06:57;3.38;;;1.80;;
79348;SDS011;68817;48.110;11.660;2023-04-25T07:09:31;3.30;;;1.70;;
79348;SDS011;68817;48.110;11.660;2023-04-25T07:11:59;4.43;;;1.90;;
79348;SDS011;68817;48.110;11.660;2023-04-25T07:14:26;3.00;;;1.95;;
79348;SDS011;68817;48.110;11.660;2023-04-25T07:16:53;2.45;;;1.73;;
79348;SDS011;68817;48.110;11.660;2023-04-25T07:19:18;5.68;;;1.77;;
79348;SDS011;68817;48.110;11.660;2023-04-25T07:21:44;6.05;;;2.03;;
79348;SDS011;68817;48.110;11.660;2023-04-25T07:24:10;2.60;;;1.58;;
79348;SDS011;68817;48.110;11.660;2023-04-25T07:26:40;2.90;;;1.83;;
79348;SDS011;68817;48.110;11.660;2023-04-25T07:29:21;3.92;;;2.03;;
79348;SDS011;68817;48.110;11.660;2023-04-25T07:31:47;2.80;;;1.60;;
79348;SDS011;68817;48.110;11.660;2023-04-25T07:34:12;2.65;;;2.10;;
79348;SDS011;68817;48.110;11.660;2023-04-25T07:36:38;4.05;;;1.83;;
79348;SDS011;68817;48.110;11.660;2023-04-25T07:39:07;4.13;;;1.70;;
79348;SDS011;68817;48.110;11.660;2023-04-25T07:41:34;1.70;;;1.30;;
79348;SDS011;68817;48.110;11.660;2023-04-25T07:44:00;3.10;;;1.58;;
79348;SDS011;68817;48.110;11.660;2023-04-25T07:46:26;3.95;;;1.70;;
79348;SDS011;68817;48.110;11.660;2023-04-25T07:48:51;3.40;;;1.88;;
79348;SDS011;68817;48.110;11.660;2023-04-25T07:51:17;2.50;;;1.60;;
79348;SDS011;68817;48.110;11.660;2023-04-25T07:53:45;2.80;;;1.60;;
79348;SDS011;68817;48.110;11.660;2023-04-25T07:56:14;1.73;;;1.45;;
79348;SDS011;68817;48.110;11.660;2023-04-25T07:58:42;3.97;;;1.90;;
79348;SDS011;68817;48.110;11.660;2023-04-25T08:01:09;4.20;;;1.70;;
79348;SDS011;68817;48.110;11.660;2023-04-25T08:03:52;2.78;;;1.65;;
79348;SDS011;68817;48.110;11.660;2023-04-25T08:09:05;3.63;;;1.73;;
79348;SDS011;68817;48.110;11.660;2023-04-25T08:11:37;3.65;;;1.70;;
79348;SDS011;68817;48.110;11.660;2023-04-25T08:14:03;3.58;;;1.48;;
79348;SDS011;68817;48.110;11.660;2023-04-25T08:16:28;1.95;;;1.52;;
79348;SDS011;68817;48.110;11.660;2023-04-25T08:18:55;2.70;;;1.63;;
79348;SDS011;68817;48.110;11.660;2023-04-25T08:21:21;3.08;;;1.77;;
79348;SDS011;68817;48.110;11.660;2023-04-25T08:23:47;3.58;;;1.73;;
79348;SDS011;68817;48.110;11.660;2023-04-25T08:26:22;1.92;;;1.45;;
79348;SDS011;68817;48.110;11.660;2023-04-25T08:28:49;2.38;;;1.80;;
79348;SDS011;68817;48.110;11.660;2023-04-25T08:31:14;4.55;;;1.80;;
79348;SDS011;68817;48.110;11.660;2023-04-25T08:33:50;2.47;;;1.50;;
79348;SDS011;68817;48.110;11.660;2023-04-25T08:36:22;2.00;;;1.38;;
79348;SDS011;68817;48.110;11.660;2023-04-25T08:38:48;2.88;;;1.52;;
79348;SDS011;68817;48.110;11.660;2023-04-25T08:41:17;3.30;;;1.40;;
79348;SDS011;68817;48.110;11.660;2023-04-25T08:43:43;3.40;;;1.55;;
79348;SDS011;68817;48.110;11.660;2023-04-25T08:46:11;4.75;;;1.80;;
79348;SDS011;68817;48.110;11.660;2023-04-25T08:48:45;2.55;;;1.48;;
79348;SDS011;68817;48.110;11.660;2023-04-25T08:51:10;2.65;;;1.60;;
79348;SDS011;68817;48.110;11.660;2023-04-25T08:53:40;4.40;;;1.60;;
79348;SDS011;68817;48.110;11.660;2023-04-25T08:56:07;2.38;;;1.38;;
79348;SDS011;68817;48.110;11.660;2023-04-25T08:58:35;2.78;;;1.52;;
79348;SDS011;68817;48.110;11.660;2023-04-25T09:01:01;2.42;;;1.52;;
79348;SDS011;68817;48.110;11.660;2023-04-25T09:05:56;2.90;;;1.60;;
79348;SDS011;68817;48.110;11.660;2023-04-25T09:08:23;3.15;;;1.52;;
79348;SDS011;68817;48.110;11.660;2023-04-25T09:10:48;3.65;;;1.50;;
79348;SDS011;68817;48.110;11.660;2023-04-25T09:13:17;2.22;;;1.20;;
79348;SDS011;68817;48.110;11.660;2023-04-25T09:16:07;3.08;;;1.30;;
79348;SDS011;68817;48.110;11.660;2023-04-25T09:18:52;2.47;;;1.00;;
79348;SDS011;68817;48.110;11.660;2023-04-25T09:21:21;2.45;;;1.30;;
79348;SDS011;68817;48.110;11.660;2023-04-25T09:23:48;1.55;;;0.90;;
79348;SDS011;68817;48.110;11.660;2023-04-25T09:26:15;1.73;;;1.05;;
79348;SDS011;68817;48.110;11.660;2023-04-25T09:28:43;1.75;;;1.05;;
79348;SDS011;68817;48.110;11.660;2023-04-25T09:31:11;1.65;;;1.10;;
79348;SDS011;68817;48.110;11.660;2023-04-25T09:33:44;1.75;;;1.10;;
79348;SDS011;68817;48.110;11.660;2023-04-25T09:36:10;2.05;;;1.17;;
79348;SDS011;68817;48.110;11.660;2023-04-25T09:41:27;1.58;;;0.85;;
79348;SDS011;68817;48.110;11.660;2023-04-25T09:43:59;2.60;;;1.25;;
79348;SDS011;68817;48.110;11.660;2023-04-25T09:46:33;2.35;;;1.23;;
79348;SDS011;68817;48.110;11.660;2023-04-25T09:48:59;1.40;;;0.93;;
79348;SDS011;68817;48.110;11.660;2023-04-25T09:51:36;2.13;;;1.10;;
79348;SDS011;68817;48.110;11.660;2023-04-25T09:54:04;1.45;;;1.00;;
79348;SDS011;68817;48.110;11.660;2023-04-25T09:56:35;2.65;;;1.20;;
79348;SDS011;68817;48.110;11.660;2023-04-25T09:59:05;2.38;;;1.33;;
79348;SDS011;68817;48.110;11.660;2023-04-25T10:01:32;1.98;;;1.20;;
79348;SDS011;68817;48.110;11.660;2023-04-25T10:04:06;1.90;;;1.15;;
79348;SDS011;68817;48.110;11.660;2023-04-25T10:06:50;1.80;;;1.30;;
79348;SDS011;68817;48.110;11.660;2023-04-25T10:09:18;2.58;;;1.27;;
79348;SDS011;68817;48.110;11.660;2023-04-25T10:11:46;2.95;;;1.10;;
79348;SDS011;68817;48.110;11.660;2023-04-25T10:14:13;2.60;;;1.30;;
79348;SDS011;68817;48.110;11.660;2023-04-25T10:16:39;2.47;;;1.05;;
79348;SDS011;68817;48.110;11.660;2023-04-25T10:19:05;1.75;;;1.17;;
79348;SDS011;68817;48.110;11.660;2023-04-25T10:21:31;1.98;;;1.20;;
79348;SDS011;68817;48.110;11.660;2023-04-25T10:23:56;5.65;;;1.33;;
79348;SDS011;68817;48.110;11.660;2023-04-25T10:26:22;1.80;;;1.10;;
79348;SDS011;68817;48.110;11.660;2023-04-25T10:28:59;2.75;;;1.17;;
79348;SDS011;68817;48.110;11.660;2023-04-25T10:31:26;3.25;;;1.27;;
79348;SDS011;68817;48.110;11.660;2023-04-25T10:33:51;2.63;;;1.30;;
79348;SDS011;68817;48.110;11.660;2023-04-25T10:36:18;2.30;;;1.20;;
79348;SDS011;68817;48.110;11.660;2023-04-25T10:38:48;2.17;;;1.00;;
79348;SDS011;68817;48.110;11.660;2023-04-25T10:41:16;2.33;;;1.08;;
79348;SDS011;68817;48.110;11.660;2023-04-25T10:43:43;2.15;;;0.90;;
79348;SDS011;68817;48.110;11.660;2023-04-25T10:48:47;1.92;;;1.20;;
79348;SDS011;68817;48.110;11.660;2023-04-25T10:51:17;3.60;;;1.40;;
79348;SDS011;68817;48.110;11.660;2023-04-25T10:53:56;4.03;;;1.45;;
79348;SDS011;68817;48.110;11.660;2023-04-25T10:56:24;5.65;;;1.65;;
79348;SDS011;68817;48.110;11.660;2023-04-25T10:58:50;4.38;;;1.40;;
79348;SDS011;68817;48.110;11.660;2023-04-25T11:01:19;1.75;;;1.00;;
79348;SDS011;68817;48.110;11.660;2023-04-25T11:03:45;2.30;;;1.00;;
79348;SDS011;68817;48.110;11.660;2023-04-25T11:06:20;1.95;;;1.63;;
79348;SDS011;68817;48.110;11.660;2023-04-25T11:08:48;2.83;;;1.20;;
79348;SDS011;68817;48.110;11.660;2023-04-25T11:11:18;1.65;;;0.98;;
79348;SDS011;68817;48.110;11.660;2023-04-25T11:13:44;1.92;;;1.10;;
79348;SDS011;68817;48.110;11.660;2023-04-25T11:16:13;3.30;;;1.20;;
79348;SDS011;68817;48.110;11.660;2023-04-25T11:18:40;1.85;;;1.42;;
79348;SDS011;68817;48.110;11.660;2023-04-25T11:21:06;3.25;;;1.50;;
79348;SDS011;68817;48.110;11.660;2023-04-25T11:23:32;2.55;;;1.40;;
79348;SDS011;68817;48.110;11.660;2023-04-25T11:25:57;2.28;;;1.50;;
79348;SDS011;68817;48.110;11.660;2023-04-25T11:28:23;1.75;;;1.20;;
79348;SDS011;68817;48.110;11.660;2023-04-25T11:30:48;1.40;;;1.10;;
79348;SDS011;68817;48.110;11.660;2023-04-25T11:33:17;2.92;;;1.30;;
79348;SDS011;68817;48.110;11.660;2023-04-25T11:35:43;1.92;;;1.23;;
79348;SDS011;68817;48.110;11.660;2023-04-25T11:38:08;1.60;;;0.88;;
79348;SDS011;68817;48.110;11.660;2023-04-25T11:40:35;2.95;;;1.10;;
79348;SDS011;68817;48.110;11.660;2023-04-25T11:43:01;3.47;;;1.20;;
79348;SDS011;68817;48.110;11.660;2023-04-25T11:45:26;1.85;;;1.20;;
79348;SDS011;68817;48.110;11.660;2023-04-25T11:47:52;1.40;;;0.82;;
79348;SDS011;68817;48.110;11.660;2023-04-25T11:50:18;2.38;;;0.90;;
79348;SDS011;68817;48.110;11.660;2023-04-25T11:52:44;1.50;;;1.05;;
79348;SDS011;68817;48.110;11.660;2023-04-25T11:55:17;1.63;;;0.95;;
79348;SDS011;68817;48.110;11.660;2023-04-25T11:57:45;3.05;;;1.48;;
79348;SDS011;68817;48.110;11.660;2023-04-25T12:00:18;2.63;;;1.10;;
79348;SDS011;68817;48.110;11.660;2023-04-25T12:02:52;2.13;;;1.30;;
79348;SDS011;68817;48.110;11.660;2023-04-25T12:05:18;2.20;;;1.10;;
79348;SDS011;68817;48.110;11.660;2023-04-25T12:07:45;1.52;;;1.00;;
79348;SDS011;68817;48.110;11.660;2023-04-25T12:10:14;1.10;;;0.90;;
79348;SDS011;68817;48.110;11.660;2023-04-25T12:12:41;2.15;;;0.98;;
79348;SDS011;68817;48.110;11.660;2023-04-25T12:15:08;1.45;;;1.00;;
79348;SDS011;68817;48.110;11.660;2023-04-25T12:17:38;2.72;;;1.00;;
79348;SDS011;68817;48.110;11.660;2023-04-25T12:20:11;2.30;;;0.85;;
79348;SDS011;68817;48.110;11.660;2023-04-25T12:22:40;0.98;;;0.88;;
79348;SDS011;68817;48.110;11.660;2023-04-25T12:25:52;1.70;;;0.80;;
79348;SDS011;68817;48.110;11.660;2023-04-25T12:28:09;2.88;;;1.00;;
79348;SDS011;68817;48.110;11.660;2023-04-25T12:31:00;2.15;;;1.15;;
79348;SDS011;68817;48.110;11.660;2023-04-25T12:33:31;1.58;;;1.00;;
79348;SDS011;68817;48.110;11.660;2023-04-25T12:35:57;1.45;;;0.70;;
79348;SDS011;68817;48.110;11.660;2023-04-25T12:38:27;1.80;;;0.90;;
79348;SDS011;68817;48.110;11.660;2023-04-25T12:40:55;2.25;;;0.90;;
79348;SDS011;68817;48.110;11.660;2023-04-25T12:43:20;1.48;;;0.75;;
79348;SDS011;68817;48.110;11.660;2023-04-25T12:45:50;1.08;;;0.73;;
79348;SDS011;68817;48.110;11.660;2023-04-25T12:48:16;2.30;;;0.90;;
79348;SDS011;68817;48.110;11.660;2023-04-25T12:50:41;1.88;;;0.90;;
79348;SDS011;68817;48.110;11.660;2023-04-25T12:53:07;1.00;;;0.70;;
79348;SDS011;68817;48.110;11.660;2023-04-25T12:55:33;1.42;;;0.80;;
79348;SDS011;68817;48.110;11.660;2023-04-25T12:57:58;0.85;;;0.52;;
79348;SDS011;68817;48.110;11.660;2023-04-25T13:00:24;1.38;;;0.70;;
79348;SDS011;68817;48.110;11.660;2023-04-25T13:02:49;2.03;;;0.95;;
79348;SDS011;68817;48.110;11.660;2023-04-25T13:05:15;2.00;;;0.70;;
79348;SDS011;68817;48.110;11.660;2023-04-25T13:07:40;2.13;;;1.08;;
79348;SDS011;68817;48.110;11.660;2023-04-25T13:10:06;1.25;;;0.70;;
79348;SDS011;68817;48.110;11.660;2023-04-25T13:12:32;1.38;;;0.70;;
79348;SDS011;68817;48.110;11.660;2023-04-25T13:14:58;1.20;;;0.80;;
79348;SDS011;68817;48.110;11.660;2023-04-25T13:17:23;0.82;;;0.65;;
79348;SDS011;68817;48.110;11.660;2023-04-25T13:19:49;1.02;;;0.73;;
79348;SDS011;68817;48.110;11.660;2023-04-25T13:22:14;1.40;;;0.75;;
79348;SDS011;68817;48.110;11.660;2023-04-25T13:24:41;0.82;;;0.65;;
79348;SDS011;68817;48.110;11.660;2023-04-25T13:27:07;2.13;;;1.13;;
79348;SDS011;68817;48.110;11.660;2023-04-25T13:29:32;0.90;;;0.60;;
79348;SDS011;68817;48.110;11.660;2023-04-25T13:32:00;0.60;;;0.50;;
79348;SDS011;68817;48.110;11.660;2023-04-25T13:34:26;1.48;;;0.77;;
79348;SDS011;68817;48.110;11.660;2023-04-25T13:36:51;1.52;;;0.70;;
79348;SDS011;68817;48.110;11.660;2023-04-25T13:39:16;1.15;;;0.70;;
79348;SDS011;68817;48.110;11.660;2023-04-25T13:41:42;1.63;;;0.90;;
79348;SDS011;68817;48.110;11.660;2023-04-25T13:44:07;1.88;;;0.73;;
79348;SDS011;68817;48.110;11.660;2023-04-25T13:46:33;2.30;;;0.90;;
79348;SDS011;68817;48.110;11.660;2023-04-25T13:48:58;1.10;;;0.90;;
79348;SDS011;68817;48.110;11.660;2023-04-25T13:51:24;1.33;;;0.90;;
79348;SDS011;68817;48.110;11.660;2023-04-25T13:53:49;2.10;;;0.90;;
79348;SDS011;68817;48.110;11.660;2023-04-25T13:56:14;1.10;;;0.90;;
79348;SDS011;68817;48.110;11.660;2023-04-25T13:58:40;2.25;;;0.70;;
79348;SDS011;68817;48.110;11.660;2023-04-25T14:01:05;1.00;;;0.70;;
79348;SDS011;68817;48.110;11.660;2023-04-25T14:03:31;1.10;;;0.80;;
79348;SDS011;68817;48.110;11.660;2023-04-25T14:05:56;1.30;;;0.68;;
79348;SDS011;68817;48.110;11.660;2023-04-25T14:08:22;1.25;;;0.80;;
79348;SDS011;68817;48.110;11.660;2023-04-25T14:10:47;1.13;;;0.88;;
79348;SDS011;68817;48.110;11.660;2023-04-25T14:13:12;1.45;;;0.63;;
79348;SDS011;68817;48.110;11.660;2023-04-25T14:15:38;1.00;;;0.68;;
79348;SDS011;68817;48.110;11.660;2023-04-25T14:18:03;2.80;;;0.82;;
79348;SDS011;68817;48.110;11.660;2023-04-25T14:20:29;1.00;;;0.60;;
79348;SDS011;68817;48.110;11.660;2023-04-25T14:22:54;1.10;;;0.70;;
79348;SDS011;68817;48.110;11.660;2023-04-25T14:25:22;0.60;;;0.50;;
79348;SDS011;68817;48.110;11.660;2023-04-25T14:27:48;1.40;;;0.70;;
79348;SDS011;68817;48.110;11.660;2023-04-25T14:30:18;2.42;;;0.90;;
79348;SDS011;68817;48.110;11.660;2023-04-25T14:32:44;2.33;;;0.82;;
79348;SDS011;68817;48.110;11.660;2023-04-25T14:35:10;1.35;;;0.77;;
79348;SDS011;68817;48.110;11.660;2023-04-25T14:37:35;1.02;;;0.70;;
79348;SDS011;68817;48.110;11.660;2023-04-25T14:40:01;1.67;;;0.80;;
79348;SDS011;68817;48.110;11.660;2023-04-25T14:42:26;0.85;;;0.60;;
79348;SDS011;68817;48.110;11.660;2023-04-25T14:44:52;1.45;;;0.70;;
79348;SDS011;68817;48.110;11.660;2023-04-25T14:47:17;1.92;;;0.70;;
79348;SDS011;68817;48.110;11.660;2023-04-25T14:49:43;1.42;;;0.95;;
79348;SDS011;68817;48.110;11.660;2023-04-25T14:52:09;0.80;;;0.50;;
79348;SDS011;68817;48.110;11.660;2023-04-25T14:54:34;1.15;;;0.70;;